Time;durP1;ratioP1;P1;durP2;ratioP2;P2;SDS_P1;SDS_P2;PMS_P1;PMS_P2;Temp;Humidity;BMP_temperature;BMP_pressure;BME280_temperature;BME280_humidity;BME280_pressure;Samples;Min_cycle;Max_cycle;Signal;HPM_P1;HPM_P2
2022/08/28 00:00:31;;;;;;;4.43;2.30;;;;;;;23.79;64.10;100433.28;4903569;29;20048;-80
2022/08/28 00:03:16;;;;;;;3.97;1.90;;;;;;;23.91;63.11;100436.75;4896849;29;20076;-81
2022/08/28 00:06:01;;;;;;;3.53;2.08;;;;;;;23.59;62.66;100439.81;4886236;29;20052;-80
2022/08/28 00:08:46;;;;;;;3.70;2.42;;;;;;;23.21;63.96;100433.38;4887946;29;20564;-81
2022/08/28 00:11:30;;;;;;;2.50;1.88;;;;;;;23.14;63.46;100439.75;4885957;29;20051;-81
2022/08/28 00:14:19;;;;;;;7.13;2.08;;;;;;;22.91;64.92;100445.84;4884562;29;20051;-81
2022/08/28 00:17:05;;;;;;;8.48;3.38;;;;;;;22.81;65.55;100443.13;4904021;29;20056;-81
2022/08/28 00:19:50;;;;;;;5.05;1.90;;;;;;;22.82;65.68;100448.28;4896021;29;20052;-80
2022/08/28 00:22:37;;;;;;;2.47;2.08;;;;;;;22.71;66.83;100442.00;4903709;29;20055;-81
2022/08/28 00:25:24;;;;;;;3.75;2.28;;;;;;;22.61;66.82;100442.81;4887677;29;20052;-81
2022/08/28 00:28:11;;;;;;;5.32;2.58;;;;;;;22.53;66.68;100435.72;4885570;29;20055;-80
2022/08/28 00:30:58;;;;;;;5.15;2.50;;;;;;;22.42;67.39;100437.75;4885343;29;20065;-81
2022/08/28 00:33:42;;;;;;;10.60;2.80;;;;;;;22.38;66.98;100439.75;4881586;29;20061;-81
2022/08/28 00:36:27;;;;;;;;;;;;;;;22.41;67.10;100438.94;4868493;29;20549;-81
2022/08/28 00:39:12;;;;;;;4.57;2.20;;;;;;;22.47;66.75;100432.59;4868801;29;20293;-81
2022/08/28 00:41:57;;;;;;;5.32;2.38;;;;;;;22.46;67.18;100431.00;4870687;29;20067;-81
2022/08/28 00:44:44;;;;;;;3.17;2.35;;;;;;;22.46;67.20;100436.53;4876214;29;20052;-81
2022/08/28 00:47:29;;;;;;;2.80;2.17;;;;;;;22.40;66.83;100437.38;4886938;29;20684;-80
2022/08/28 00:50:16;;;;;;;6.32;2.50;;;;;;;22.39;67.19;100427.47;4886981;29;20056;-81
2022/08/28 00:53:01;;;;;;;7.93;3.47;;;;;;;22.21;67.85;100430.31;4885617;29;20451;-81
2022/08/28 00:55:49;;;;;;;3.03;2.30;;;;;;;22.18;68.82;100440.22;4871806;29;20064;-81
2022/08/28 00:58:34;;;;;;;6.70;2.08;;;;;;;22.18;68.66;100431.91;4869369;29;20052;-81
2022/08/28 01:01:19;;;;;;;4.07;2.45;;;;;;;22.30;68.54;100441.75;4881843;29;20068;-81
2022/08/28 01:04:05;;;;;;;4.18;2.08;;;;;;;22.27;68.38;100439.00;4870677;29;20075;-81
2022/08/28 01:06:54;;;;;;;5.00;3.05;;;;;;;22.25;68.28;100441.41;4884742;29;20052;-81
2022/08/28 01:09:42;;;;;;;9.55;2.35;;;;;;;22.31;68.78;100442.53;4884460;29;20430;-80
2022/08/28 01:12:29;;;;;;;4.97;2.30;;;;;;;22.30;68.69;100438.97;4883180;29;20064;-81
2022/08/28 01:15:18;;;;;;;6.20;2.38;;;;;;;22.25;68.74;100435.84;4885039;29;20052;-81
2022/08/28 01:18:10;;;;;;;5.40;2.50;;;;;;;22.23;69.03;100429.91;4885457;29;20411;-80
2022/08/28 01:21:10;;;;;;;6.35;2.58;;;;;;;22.42;68.06;100434.97;4885251;29;20055;-80
2022/08/28 01:24:03;;;;;;;10.45;2.83;;;;;;;22.34;68.18;100437.00;4867713;29;20070;-80
2022/08/28 01:26:48;;;;;;;12.30;3.13;;;;;;;22.21;69.14;100435.84;4864977;29;20049;-81
2022/08/28 01:29:33;;;;;;;5.60;2.83;;;;;;;22.26;68.68;100443.75;4868333;29;20419;-80
2022/08/28 01:32:27;;;;;;;5.30;2.47;;;;;;;22.38;67.79;100450.84;4869990;29;20513;-81
2022/08/28 01:35:15;;;;;;;5.18;2.70;;;;;;;22.38;68.07;100445.28;4882978;29;20052;-81
2022/08/28 01:38:01;;;;;;;10.25;3.28;;;;;;;22.51;68.16;100449.97;4885844;29;20056;-81
2022/08/28 01:40:47;;;;;;;5.43;2.58;;;;;;;22.54;67.69;100456.72;4883505;29;20063;-80
2022/08/28 01:43:32;;;;;;;4.57;2.13;;;;;;;22.52;67.77;100451.56;4870956;29;20056;-81
2022/08/28 01:46:17;;;;;;;3.92;2.70;;;;;;;22.52;67.13;100448.00;4865069;29;20077;-80
2022/08/28 01:49:03;;;;;;;4.50;2.40;;;;;;;22.40;68.16;100467.88;4864893;29;20135;-82
2022/08/28 01:51:48;;;;;;;6.97;2.80;;;;;;;22.37;67.68;100452.03;4877151;29;20064;-81
2022/08/28 01:54:34;;;;;;;6.47;3.13;;;;;;;22.35;67.55;100446.88;4881033;29;20060;-81
2022/08/28 01:57:19;;;;;;;4.90;2.55;;;;;;;22.16;67.80;100450.91;4884357;29;20060;-81
2022/08/28 02:00:04;;;;;;;;;;;;;;;22.28;68.03;100455.22;4882736;29;20052;-80
2022/08/28 02:02:57;;;;;;;3.90;2.83;;;;;;;22.22;68.50;100456.03;4881663;29;19920;-80
2022/08/28 02:05:43;;;;;;;4.00;2.63;;;;;;;22.31;68.12;100454.41;4864285;29;20052;-81
2022/08/28 02:08:27;;;;;;;5.22;2.55;;;;;;;22.28;68.03;100452.47;4864518;29;20064;-80
2022/08/28 02:11:12;;;;;;;4.70;3.13;;;;;;;22.18;68.25;100456.84;4863895;29;20061;-79
2022/08/28 02:13:58;;;;;;;5.30;3.00;;;;;;;22.22;68.08;100453.25;4870382;29;20056;-81
2022/08/28 02:16:43;;;;;;;7.45;3.50;;;;;;;22.27;67.84;100450.06;4882443;29;20052;-81
2022/08/28 02:19:29;;;;;;;6.70;2.75;;;;;;;22.22;68.47;100450.50;4886027;29;20075;-80
2022/08/28 02:22:14;;;;;;;7.53;3.30;;;;;;;22.23;67.63;100452.06;4883337;29;20048;-81
2022/08/28 02:24:59;;;;;;;3.67;2.65;;;;;;;22.27;67.47;100448.09;4873796;29;20064;-82
2022/08/28 02:27:44;;;;;;;10.45;2.80;;;;;;;22.14;68.00;100449.75;4868113;29;20052;-81
2022/08/28 02:30:29;;;;;;;8.25;2.80;;;;;;;21.93;69.35;100450.53;4866001;29;20061;-82
2022/08/28 02:33:15;;;;;;;3.85;2.65;;;;;;;21.99;69.22;100451.72;4865820;29;20072;-81
2022/08/28 02:35:59;;;;;;;4.05;3.10;;;;;;;22.07;69.07;100450.53;4882797;29;20060;-82
2022/08/28 02:38:46;;;;;;;6.10;3.38;;;;;;;21.94;69.03;100443.06;4886584;29;20052;-80
2022/08/28 02:41:31;;;;;;;2.97;2.58;;;;;;;21.89;69.31;100446.97;4883123;29;20068;-80
2022/08/28 02:44:16;;;;;;;4.97;2.97;;;;;;;21.75;70.00;100442.25;4884254;29;20048;-81
2022/08/28 02:47:01;;;;;;;4.82;3.05;;;;;;;21.70;70.35;100439.09;4891422;29;20097;-82
2022/08/28 02:49:45;;;;;;;6.60;2.55;;;;;;;21.69;70.55;100440.28;4890549;29;20425;-81
2022/08/28 02:52:30;;;;;;;4.93;3.20;;;;;;;21.77;70.28;100439.09;4891185;29;20048;-81
2022/08/28 02:55:17;;;;;;;6.40;3.00;;;;;;;21.83;69.58;100437.50;4873319;29;20550;-80
2022/08/28 02:58:02;;;;;;;4.45;3.00;;;;;;;21.82;69.76;100432.38;4884420;29;20418;-81
2022/08/28 03:00:48;;;;;;;4.15;3.05;;;;;;;21.63;68.89;100425.28;4885237;29;20692;-80
2022/08/28 03:03:33;;;;;;;3.03;2.25;;;;;;;21.61;69.59;100430.41;4885080;29;20063;-81
2022/08/28 03:06:18;;;;;;;7.78;2.97;;;;;;;21.69;68.85;100424.47;4874596;29;20061;-81
2022/08/28 03:09:04;;;;;;;4.38;2.70;;;;;;;21.68;69.22;100419.34;4866227;29;20056;-80
2022/08/28 03:11:52;;;;;;;11.32;2.60;;;;;;;21.66;69.24;100413.41;4882355;29;20052;-80
2022/08/28 03:14:37;;;;;;;3.58;2.45;;;;;;;21.67;68.77;100417.75;4865923;29;20061;-80
2022/08/28 03:17:21;;;;;;;7.28;2.83;;;;;;;21.62;68.84;100418.94;4882372;29;20052;-80
2022/08/28 03:20:08;;;;;;;6.20;2.58;;;;;;;21.81;68.23;100422.47;4888338;29;20060;-80
2022/08/28 03:26:00;;;;;;;5.43;2.60;;;;;;;21.60;69.06;100420.53;4885121;29;20048;-80
2022/08/28 03:28:49;;;;;;;3.30;2.80;;;;;;;21.51;69.92;100420.94;4880686;29;20064;-80
2022/08/28 03:31:35;;;;;;;4.07;3.03;;;;;;;21.46;69.50;100415.00;4865820;29;20052;-79
2022/08/28 03:34:22;;;;;;;6.22;2.35;;;;;;;21.46;70.13;100417.78;4868817;29;20443;-80
2022/08/28 03:37:08;;;;;;;3.88;2.67;;;;;;;21.32;70.15;100427.66;4878212;29;20060;-81
2022/08/28 03:39:52;;;;;;;4.13;2.30;;;;;;;21.22;70.09;100420.16;4890174;29;20056;-80
2022/08/28 03:42:37;;;;;;;4.10;2.47;;;;;;;21.49;69.92;100422.50;4893641;29;20065;-81
2022/08/28 03:45:22;;;;;;;3.47;2.47;;;;;;;21.58;69.29;100422.91;4892008;29;20060;-80
2022/08/28 03:48:07;;;;;;;3.17;2.53;;;;;;;21.63;68.78;100422.50;4875393;29;20052;-80
2022/08/28 03:50:53;;;;;;;3.42;2.20;;;;;;;21.60;68.90;100428.81;4870876;29;20064;-81
2022/08/28 03:53:39;;;;;;;3.67;2.50;;;;;;;21.66;68.74;100421.69;4886882;29;20060;-81
2022/08/28 03:56:26;;;;;;;5.10;2.72;;;;;;;21.66;69.20;100422.50;4871646;29;20052;-81
2022/08/28 03:59:11;;;;;;;3.75;2.15;;;;;;;21.76;67.44;100431.97;4871099;29;20057;-80
2022/08/28 04:01:56;;;;;;;5.25;2.15;;;;;;;21.65;68.21;100422.88;4871131;29;20057;-80
2022/08/28 04:04:40;;;;;;;3.05;2.13;;;;;;;21.76;68.34;100423.66;4870741;29;20123;-81
2022/08/28 04:07:25;;;;;;;6.75;2.85;;;;;;;21.74;67.81;100424.06;4873026;29;20052;-79
2022/08/28 04:10:11;;;;;;;9.68;3.03;;;;;;;21.69;68.02;100431.97;4879422;29;20056;-80
2022/08/28 04:12:55;;;;;;;3.67;2.28;;;;;;;21.83;68.27;100443.03;4868100;29;20056;-81
2022/08/28 04:15:40;;;;;;;4.18;2.00;;;;;;;21.76;68.47;100431.97;4867674;29;20060;-81
2022/08/28 04:18:26;;;;;;;3.55;2.42;;;;;;;21.59;68.22;100422.50;4883371;29;20051;-79
2022/08/28 04:21:22;;;;;;;4.85;2.25;;;;;;;21.51;68.59;100418.16;4889477;29;20064;-80
2022/08/28 04:24:07;;;;;;;3.72;2.25;;;;;;;21.48;69.21;100426.47;4891844;29;20048;-81
2022/08/28 04:26:52;;;;;;;10.05;2.92;;;;;;;21.55;68.28;100420.91;4895268;29;20052;-80
2022/08/28 04:29:37;;;;;;;3.75;2.10;;;;;;;21.64;68.75;100429.59;4897909;29;20060;-81
2022/08/28 04:32:22;;;;;;;;;;;;;;;21.64;67.80;100421.31;4902819;29;20615;-81
2022/08/28 04:35:09;;;;;;;3.55;2.03;;;;;;;21.81;68.28;100423.25;4892349;29;19915;-81
2022/08/28 04:37:54;;;;;;;6.32;2.85;;;;;;;21.81;67.50;100428.78;4887559;29;20068;-80
2022/08/28 04:40:39;;;;;;;4.88;2.05;;;;;;;21.84;67.25;100433.53;4888758;29;20060;-81
2022/08/28 04:43:24;;;;;;;3.40;2.20;;;;;;;21.64;67.56;100427.63;4891971;29;20052;-81
2022/08/28 04:46:12;;;;;;;4.55;2.47;;;;;;;21.67;66.98;100431.59;4888763;29;20051;-81
2022/08/28 04:48:57;;;;;;;11.35;2.70;;;;;;;21.33;68.39;100437.53;4892905;29;20615;-81
2022/08/28 04:51:42;;;;;;;3.92;2.47;;;;;;;21.36;68.68;100437.94;4890217;29;20048;-81
2022/08/28 04:54:27;;;;;;;3.58;2.40;;;;;;;21.35;68.77;100439.91;4894115;29;20051;-81
2022/08/28 04:57:12;;;;;;;3.55;2.20;;;;;;;21.54;68.65;100439.50;4886102;29;20077;-82
2022/08/28 04:59:57;;;;;;;2.90;1.88;;;;;;;22.37;66.86;100438.97;4896961;29;20433;-79
2022/08/28 05:02:42;;;;;;;3.33;2.10;;;;;;;22.87;64.59;100441.50;4897974;23;20100;-64
2022/08/28 05:05:27;;;;;;;5.93;2.60;;;;;;;22.56;64.30;100440.44;4872687;29;20069;-67
2022/08/28 05:08:14;;;;;;;4.63;2.25;;;;;;;22.19;65.48;100438.25;4877860;29;20519;-67
2022/08/28 05:11:15;;;;;;;3.30;2.30;;;;;;;22.04;66.24;100445.00;4896660;29;20052;-64
2022/08/28 05:14:00;;;;;;;4.25;2.72;;;;;;;21.93;66.16;100435.91;4888989;29;20052;-64
2022/08/28 05:16:47;;;;;;;4.18;2.25;;;;;;;21.86;67.35;100445.00;4878035;29;20461;-64
2022/08/28 05:19:32;;;;;;;5.30;2.22;;;;;;;21.88;67.15;100456.47;4877984;29;20076;-65
2022/08/28 05:22:17;;;;;;;5.60;2.38;;;;;;;21.80;67.05;100454.09;4878095;29;20043;-64
2022/08/28 05:25:02;;;;;;;6.30;2.70;;;;;;;21.66;68.25;100449.38;4878018;29;20052;-65
2022/08/28 05:27:49;;;;;;;7.90;2.75;;;;;;;21.59;68.84;100460.44;4877228;29;20520;-64
2022/08/28 05:30:36;;;;;;;7.95;3.05;;;;;;;21.64;68.77;100451.75;4876453;29;20051;-64
2022/08/28 05:33:21;;;;;;;5.75;2.35;;;;;;;21.69;68.73;100448.56;4872641;29;20044;-64
2022/08/28 05:36:07;;;;;;;6.28;2.80;;;;;;;21.73;68.88;100444.66;4877235;29;20056;-64
2022/08/28 05:38:55;;;;;;;6.57;2.95;;;;;;;22.03;67.90;100457.28;4877303;29;20052;-65
2022/08/28 05:41:42;;;;;;;5.13;3.08;;;;;;;22.09;67.61;100459.25;4877197;29;20449;-63
2022/08/28 05:44:27;;;;;;;4.47;3.03;;;;;;;22.30;67.09;100472.22;4877662;29;20072;-64
2022/08/28 05:47:12;;;;;;;8.10;2.60;;;;;;;22.37;66.79;100471.41;4877745;29;20044;-64
2022/08/28 05:49:58;;;;;;;3.88;2.78;;;;;;;22.43;66.62;100476.16;4878378;29;20051;-69
2022/08/28 05:52:43;;;;;;;6.18;3.00;;;;;;;22.42;66.58;100488.44;4886864;29;20052;-69
2022/08/28 05:55:28;;;;;;;6.35;2.97;;;;;;;22.50;66.46;100491.97;4889758;29;20532;-66
2022/08/28 06:01:27;;;;;;;2.88;2.42;;;;;;;22.73;66.04;100485.97;4877420;29;20072;-66
2022/08/28 06:04:16;;;;;;;4.17;2.60;;;;;;;22.86;65.61;100484.28;4882588;29;20528;-66
2022/08/28 06:07:01;;;;;;;3.55;2.58;;;;;;;23.06;64.35;100490.91;4884825;29;20424;-67
2022/08/28 06:09:46;;;;;;;6.10;2.17;;;;;;;23.21;63.42;100497.19;4877520;29;20048;-66
2022/08/28 06:12:31;;;;;;;6.97;2.88;;;;;;;23.26;63.96;100500.31;4877137;29;20425;-65
2022/08/28 06:15:16;;;;;;;6.80;2.88;;;;;;;23.26;63.73;100505.09;4880682;29;20425;-66
2022/08/28 06:18:01;;;;;;;4.88;2.78;;;;;;;23.25;63.21;100503.50;4876837;29;20052;-65
2022/08/28 06:20:46;;;;;;;5.60;2.65;;;;;;;23.30;63.64;100505.84;4877305;29;20052;-66
2022/08/28 06:23:31;;;;;;;5.43;2.78;;;;;;;23.33;63.75;100505.81;4877173;29;20060;-67
2022/08/28 06:26:16;;;;;;;4.40;2.33;;;;;;;23.42;63.66;100514.47;4877676;29;20052;-64
2022/08/28 06:29:04;;;;;;;7.93;2.90;;;;;;;23.56;62.61;100519.19;4877049;29;20055;-66
2022/08/28 06:31:56;;;;;;;6.72;3.40;;;;;;;23.59;62.69;100512.00;4876982;29;20067;-63
2022/08/28 06:34:41;;;;;;;6.65;3.22;;;;;;;23.62;62.92;100517.53;4877056;29;20052;-65
2022/08/28 06:37:26;;;;;;;10.82;2.70;;;;;;;23.70;62.38;100516.28;4876578;29;20040;-65
2022/08/28 06:40:13;;;;;;;4.95;2.90;;;;;;;23.82;62.21;100515.78;4870572;29;20516;-66
2022/08/28 06:42:58;;;;;;;10.05;2.50;;;;;;;24.00;61.32;100517.63;4887537;29;20413;-65
2022/08/28 06:45:45;;;;;;;8.45;2.75;;;;;;;24.26;60.28;100522.53;4868667;29;20055;-63
2022/08/28 06:48:30;;;;;;;5.63;2.80;;;;;;;24.81;58.25;100539.00;4872857;29;20044;-66
2022/08/28 06:51:15;;;;;;;9.20;2.72;;;;;;;25.17;55.59;100541.34;4877064;29;20060;-66
2022/08/28 06:54:01;;;;;;;3.60;2.78;;;;;;;25.66;55.88;100545.41;4876392;29;20052;-67
2022/08/28 06:56:46;;;;;;;6.32;2.95;;;;;;;26.56;53.83;100546.25;4876786;29;20052;-65
2022/08/28 06:59:31;;;;;;;15.05;2.50;;;;;;;27.46;50.09;100553.09;4876752;29;20409;-65
2022/08/28 07:02:16;;;;;;;6.78;2.50;;;;;;;28.02;47.89;100562.16;4876876;29;20059;-66
2022/08/28 07:05:02;;;;;;;5.90;2.90;;;;;;;28.13;47.60;100561.91;4859778;29;20053;-63
2022/08/28 07:07:47;;;;;;;9.43;3.15;;;;;;;28.10;48.21;100557.16;4858163;29;20068;-65
2022/08/28 07:10:32;;;;;;;3.72;2.90;;;;;;;26.93;51.27;100554.28;4868920;29;20056;-66
2022/08/28 07:13:17;;;;;;;6.03;3.22;;;;;;;28.49;48.09;100567.34;4884975;29;20126;-67
2022/08/28 07:16:02;;;;;;;4.75;3.50;;;;;;;27.14;50.74;100561.41;4874065;29;20052;-66
2022/08/28 07:18:47;;;;;;;7.55;3.97;;;;;;;28.80;46.86;100562.88;4879468;29;20068;-65
2022/08/28 07:21:35;;;;;;;8.43;3.45;;;;;;;28.59;48.25;100571.88;4879357;29;20065;-68
2022/08/28 07:24:20;;;;;;;6.25;2.92;;;;;;;27.68;49.24;100575.00;4885374;29;20056;-69
2022/08/28 07:27:05;;;;;;;3.95;2.97;;;;;;;26.70;50.65;100573.88;4892750;29;20052;-70
2022/08/28 07:29:53;;;;;;;4.32;3.13;;;;;;;26.34;53.75;100577.31;4880042;29;20056;-66
2022/08/28 07:32:38;;;;;;;6.25;4.00;;;;;;;26.63;52.58;100574.00;4866416;29;20532;-66
2022/08/28 07:35:23;;;;;;;3.53;2.80;;;;;;;29.42;44.98;100571.84;4871327;29;20048;-65
2022/08/28 07:38:08;;;;;;;9.65;3.65;;;;;;;31.27;40.30;100583.91;4876389;29;20424;-65
2022/08/28 07:40:54;;;;;;;7.97;3.50;;;;;;;28.88;44.16;100583.06;4892016;29;20064;-64
2022/08/28 07:46:43;;;;;;;6.57;2.95;;;;;;;30.54;42.12;100585.38;4872563;29;20442;-64
2022/08/28 07:49:30;;;;;;;5.25;3.17;;;;;;;31.37;38.85;100598.78;4873206;29;20048;-64
2022/08/28 07:52:14;;;;;;;4.15;2.88;;;;;;;28.69;42.87;100593.16;4871192;29;20060;-64
2022/08/28 07:55:00;;;;;;;4.80;3.40;;;;;;;27.44;48.19;100588.25;4872598;29;20051;-66
2022/08/28 07:57:46;;;;;;;6.60;3.40;;;;;;;28.47;45.58;100592.97;4874754;29;20048;-64
2022/08/28 08:00:31;;;;;;;6.47;3.72;;;;;;;29.36;42.72;100595.28;4871338;29;20048;-65
2022/08/28 08:03:16;;;;;;;4.25;3.03;;;;;;;31.45;40.44;100594.44;4871870;29;20052;-63
2022/08/28 08:06:03;;;;;;;8.55;2.80;;;;;;;38.25;27.59;100611.09;4872478;29;20348;-63
2022/08/28 08:08:48;;;;;;;6.28;3.05;;;;;;;34.82;32.08;100607.94;4864549;29;20052;-64
2022/08/28 08:11:33;;;;;;;7.15;2.63;;;;;;;33.69;35.05;100611.63;4873952;29;20512;-64
2022/08/28 08:14:18;;;;;;;5.65;3.63;;;;;;;31.49;37.38;100597.91;4878810;29;20520;-64
2022/08/28 08:17:04;;;;;;;15.38;3.70;;;;;;;30.17;41.76;100598.28;4878495;29;20048;-64
2022/08/28 08:19:49;;;;;;;10.30;4.47;;;;;;;29.64;42.72;100597.97;4878077;29;20417;-64
2022/08/28 08:22:35;;;;;;;12.10;4.35;;;;;;;33.49;36.36;100609.34;4878766;29;20056;-64
2022/08/28 08:25:20;;;;;;;12.13;4.20;;;;;;;39.78;26.00;100620.94;4879002;29;20056;-63
2022/08/28 08:28:06;;;;;;;5.15;3.22;;;;;;;39.04;26.26;100627.13;4872633;29;20580;-64
2022/08/28 08:31:06;;;;;;;6.00;2.85;;;;;;;38.23;27.14;100622.16;4874499;29;20052;-64
2022/08/28 08:33:55;;;;;;;8.05;4.03;;;;;;;39.99;24.40;100622.19;4878096;29;20060;-64
2022/08/28 08:36:39;;;;;;;5.70;3.40;;;;;;;44.20;19.57;100625.81;4878649;29;20445;-65
2022/08/28 08:39:25;;;;;;;8.05;3.67;;;;;;;43.36;20.12;100623.72;4878717;29;20057;-64
2022/08/28 08:42:22;;;;;;;5.47;3.25;;;;;;;45.34;18.04;100618.56;4878346;29;20056;-65
2022/08/28 08:45:12;;;;;;;5.20;3.38;;;;;;;43.06;20.17;100618.97;4867408;29;20057;-64
2022/08/28 08:47:59;;;;;;;7.45;3.60;;;;;;;45.00;18.65;100624.34;4859502;29;20052;-63
2022/08/28 08:50:44;;;;;;;5.35;3.60;;;;;;;35.64;29.11;100598.56;4860120;29;20053;-65
2022/08/28 08:53:39;;;;;;;7.60;3.70;;;;;;;31.82;37.73;100592.56;4859825;29;20072;-64
2022/08/28 08:56:24;;;;;;;9.45;4.25;;;;;;;30.41;40.87;100585.44;4876515;29;20044;-64
2022/08/28 08:59:14;;;;;;;10.32;4.20;;;;;;;29.38;43.72;100584.41;4870418;29;20073;-64
2022/08/28 09:02:21;;;;;;;11.25;4.32;;;;;;;29.22;43.65;100585.25;4878234;29;20068;-64
2022/08/28 09:05:10;;;;;;;16.42;4.32;;;;;;;28.15;46.58;100592.22;4876640;29;20056;-64
2022/08/28 09:08:01;;;;;;;7.38;3.65;;;;;;;28.32;45.93;100588.19;4876734;29;20060;-65
2022/08/28 09:10:54;;;;;;;8.35;3.78;;;;;;;28.32;45.64;100591.75;4875968;29;20044;-65
2022/08/28 09:14:06;;;;;;;7.85;3.67;;;;;;;28.46;45.58;100585.78;4871901;29;20056;-63
2022/08/28 09:16:51;;;;;;;6.10;3.78;;;;;;;28.43;44.13;100569.88;4875780;29;20040;-64
2022/08/28 09:19:36;;;;;;;7.35;4.00;;;;;;;28.25;46.29;100577.94;4875455;29;20056;-63
2022/08/28 09:22:21;;;;;;;5.82;3.25;;;;;;;28.13;46.02;100578.69;4873471;29;20056;-63
2022/08/28 09:25:09;;;;;;;6.30;3.58;;;;;;;28.24;45.49;100584.75;4869574;29;20056;-63
2022/08/28 09:28:04;;;;;;;7.60;3.65;;;;;;;28.16;45.82;100577.00;4877228;29;20405;-63
2022/08/28 09:31:04;;;;;;;4.68;2.95;;;;;;;28.20;45.42;100578.47;4877021;29;20048;-63
2022/08/28 09:33:52;;;;;;;10.32;3.20;;;;;;;28.72;43.96;100583.91;4875800;29;20056;-63
2022/08/28 09:36:37;;;;;;;7.90;2.83;;;;;;;28.01;46.03;100580.13;4877493;29;20059;-63
2022/08/28 09:39:28;;;;;;;9.90;4.30;;;;;;;28.71;44.59;100584.31;4877638;29;20077;-64
2022/08/28 09:45:20;;;;;;;6.78;4.15;;;;;;;34.93;30.77;100594.00;4863062;29;20512;-64
2022/08/28 09:48:18;;;;;;;6.22;3.88;;;;;;;35.95;28.84;100592.34;4858445;29;20394;-64
2022/08/28 09:51:10;;;;;;;9.35;4.90;;;;;;;36.06;29.59;100603.81;4866559;29;20056;-63
2022/08/28 09:54:11;;;;;;;4.65;2.88;;;;;;;41.59;22.53;100610.41;4868762;29;20040;-64
2022/08/28 09:56:56;;;;;;;4.63;3.20;;;;;;;38.34;26.06;100610.84;4869968;29;20067;-60
2022/08/28 09:59:41;;;;;;;4.78;2.70;;;;;;;39.91;23.64;100618.31;4877228;29;20520;-62
2022/08/28 10:02:50;;;;;;;5.15;3.08;;;;;;;37.60;25.44;100617.38;4879763;29;20052;-62
2022/08/28 10:05:52;;;;;;;3.22;2.63;;;;;;;44.02;19.08;100627.50;4877144;29;20068;-62
2022/08/28 10:08:52;;;;;;;4.22;2.42;;;;;;;38.68;25.00;100611.75;4877291;29;20052;-62
2022/08/28 10:11:37;;;;;;;3.95;2.58;;;;;;;37.23;27.19;100602.38;4877089;29;20048;-62
2022/08/28 10:14:50;;;;;;;6.22;2.85;;;;;;;33.80;32.30;100597.78;4870196;29;20139;-62
2022/08/28 10:18:02;;;;;;;5.25;3.40;;;;;;;39.41;24.32;100615.53;4873149;29;20048;-62
2022/08/28 10:21:09;;;;;;;6.97;2.88;;;;;;;44.39;18.74;100617.88;4891429;29;20060;-62
2022/08/28 10:24:25;;;;;;;5.43;2.58;;;;;;;47.16;15.54;100625.28;4877199;29;20060;-62
2022/08/28 10:27:21;;;;;;;6.13;2.40;;;;;;;47.42;15.75;100622.06;4869978;29;20071;-66
2022/08/28 10:30:13;;;;;;;4.15;2.83;;;;;;;46.17;16.82;100612.69;4868643;29;20056;-67
2022/08/28 10:33:39;;;;;;;5.43;3.08;;;;;;;40.73;21.41;100596.50;4886580;29;20052;-64
2022/08/28 10:36:30;;;;;;;5.68;2.78;;;;;;;41.13;21.09;100594.94;4886529;29;20047;-64
2022/08/28 10:39:40;;;;;;;5.05;3.83;;;;;;;44.69;17.88;100595.31;4887619;29;20413;-65
2022/08/28 10:42:34;;;;;;;3.40;2.85;;;;;;;47.85;14.89;100609.53;4892170;29;20056;-65
2022/08/28 10:45:23;;;;;;;6.35;2.70;;;;;;;44.65;17.18;100594.13;4900008;29;20420;-65
2022/08/28 10:48:29;;;;;;;6.03;3.22;;;;;;;44.13;17.91;100592.09;4914801;29;20141;-62
2022/08/28 10:51:23;;;;;;;7.30;3.13;;;;;;;43.16;19.67;100596.47;4899621;29;20051;-63
2022/08/28 10:54:24;;;;;;;5.97;3.88;;;;;;;40.95;21.29;100582.06;4915719;29;20548;-65
2022/08/28 10:57:18;;;;;;;7.75;3.38;;;;;;;46.14;16.65;100593.63;4893719;29;20048;-68
2022/08/28 11:00:17;;;;;;;4.85;3.17;;;;;;;49.53;13.42;100597.91;4892050;29;20056;-65
2022/08/28 11:03:07;;;;;;;4.95;3.20;;;;;;;45.41;16.62;100598.53;4942569;23;20068;-78
2022/08/28 11:05:59;;;;;;;4.30;3.03;;;;;;;48.75;14.19;100595.38;4862041;29;20538;-77
2022/08/28 11:08:53;;;;;;;4.37;2.80;;;;;;;47.41;14.93;100608.22;4866045;29;20053;-78
2022/08/28 11:11:47;;;;;;;3.95;2.90;;;;;;;48.96;14.25;100600.81;4875946;29;20052;-79
2022/08/28 11:14:40;;;;;;;6.63;3.30;;;;;;;48.61;14.15;100594.09;4867336;29;20060;-78
2022/08/28 11:17:26;;;;;;;3.75;2.63;;;;;;;50.49;12.44;100595.88;4883373;29;20059;-78
2022/08/28 11:20:16;;;;;;;6.25;3.15;;;;;;;51.24;11.88;100599.00;4891761;29;20053;-79
2022/08/28 11:23:16;;;;;;;8.02;2.28;;;;;;;48.76;13.95;100591.91;4887295;29;20127;-77
2022/08/28 11:26:05;;;;;;;9.13;2.38;;;;;;;52.32;10.91;100602.97;4884412;29;20064;-77
2022/08/28 11:28:53;;;;;;;3.03;2.22;;;;;;;48.99;12.98;100590.97;4889291;29;20052;-78
2022/08/28 11:31:39;;;;;;;4.15;2.30;;;;;;;51.11;11.76;100597.25;4883717;29;20055;-77
2022/08/28 11:35:03;;;;;;;3.40;2.53;;;;;;;50.86;11.77;100590.88;4879756;29;20044;-77
2022/08/28 11:37:50;;;;;;;3.28;2.47;;;;;;;49.48;13.28;100596.75;4870136;29;20406;-77
2022/08/28 11:40:37;;;;;;;7.93;3.22;;;;;;;50.66;13.07;100595.03;4860817;29;20399;-79
2022/08/28 11:43:22;;;;;;;3.50;2.53;;;;;;;50.38;13.18;100588.47;4860613;29;20053;-79
2022/08/28 11:46:30;;;;;;;5.55;2.90;;;;;;;50.12;13.25;100582.63;4865885;29;20049;-79
2022/08/28 11:49:33;;;;;;;7.53;4.07;;;;;;;50.60;12.57;100583.72;4870548;29;20056;-78
2022/08/28 11:52:37;;;;;;;4.50;2.58;;;;;;;50.62;13.15;100583.13;4861206;29;20050;-77
2022/08/28 11:55:28;;;;;;;3.63;2.58;;;;;;;51.16;12.07;100575.91;4855786;29;20052;-77
2022/08/28 11:58:25;;;;;;;4.78;2.50;;;;;;;50.91;12.40;100572.44;4875891;29;20048;-78
2022/08/28 12:01:24;;;;;;;4.63;2.95;;;;;;;49.80;13.31;100569.84;4871703;29;20053;-82
2022/08/28 12:04:20;;;;;;;4.30;2.58;;;;;;;51.12;12.21;100569.81;4884159;29;20417;-80
2022/08/28 12:07:08;;;;;;;6.90;2.58;;;;;;;49.52;12.99;100556.66;4884383;29;20052;-81
2022/08/28 12:09:53;;;;;;;4.63;2.58;;;;;;;41.30;20.15;100535.59;4865456;29;20064;-81
2022/08/28 12:12:44;;;;;;;4.28;2.28;;;;;;;41.79;20.13;100533.56;4870072;29;20053;-81
2022/08/28 12:15:29;;;;;;;5.53;2.28;;;;;;;44.59;16.90;100533.97;4866742;29;20048;-80
2022/08/28 12:18:54;;;;;;;7.30;2.15;;;;;;;47.07;15.14;100531.59;4875550;29;20052;-78
2022/08/28 12:21:40;;;;;;;11.65;2.72;;;;;;;47.18;15.06;100530.44;4867173;29;20049;-86
2022/08/28 12:24:27;;;;;;;22.00;3.10;;;;;;;45.65;16.17;100516.88;4878336;29;20052;-83
2022/08/28 12:27:13;;;;;;;11.85;4.00;;;;;;;44.59;15.36;100511.00;4879895;29;20441;-89
2022/08/28 12:30:00;;;;;;;5.78;1.75;;;;;;;44.13;16.00;100506.06;4885989;29;20052;-80
2022/08/28 12:32:53;;;;;;;4.07;2.13;;;;;;;41.69;18.04;100497.34;4894309;29;20052;-79
2022/08/28 12:35:38;;;;;;;4.40;2.33;;;;;;;43.43;17.42;100497.78;4894161;29;20047;-79
2022/08/28 12:38:24;;;;;;;3.65;1.80;;;;;;;45.36;15.74;100495.22;4914537;29;20052;-77
2022/08/28 12:41:16;;;;;;;9.90;2.28;;;;;;;43.83;17.64;100487.13;4900093;29;20544;-87
2022/08/28 12:44:03;;;;;;;1.92;1.42;;;;;;;41.33;19.75;100494.59;4897886;29;20417;-81
2022/08/28 12:46:48;;;;;;;6.05;2.13;;;;;;;41.00;19.98;100489.16;4903117;29;20051;-82
2022/08/28 12:49:36;;;;;;;2.20;1.63;;;;;;;42.27;18.58;100483.31;4887347;29;20047;-79
2022/08/28 12:52:24;;;;;;;13.77;3.35;;;;;;;43.56;18.56;100479.09;4878352;29;20056;-78
2022/08/28 12:55:09;;;;;;;7.10;2.10;;;;;;;43.55;17.60;100484.06;4871068;29;20536;-80
2022/08/28 12:57:54;;;;;;;4.90;2.65;;;;;;;42.41;18.78;100481.34;4869568;29;20108;-80
2022/08/28 13:00:55;;;;;;;4.68;2.05;;;;;;;43.60;18.34;100488.13;4884901;29;20052;-80
2022/08/28 13:03:51;;;;;;;3.67;2.10;;;;;;;44.85;16.39;100486.41;4870383;29;20056;-78
2022/08/28 13:06:37;;;;;;;11.32;2.63;;;;;;;45.52;16.87;100491.91;4873013;29;20044;-79
2022/08/28 13:09:26;;;;;;;15.43;3.13;;;;;;;46.55;15.54;100494.84;4873833;29;20056;-82
2022/08/28 13:12:40;;;;;;;5.63;2.45;;;;;;;45.56;16.84;100485.81;4893584;29;20055;-78
2022/08/28 13:15:50;;;;;;;19.00;3.40;;;;;;;43.87;18.34;100473.25;4893029;29;20076;-81